createdAt,value
2022-08-27T00:01:22.044Z,99745.09
2022-08-27T00:03:49.233Z,99745.00
2022-08-27T00:06:18.478Z,99740.09
2022-08-27T00:08:47.734Z,99746.03
2022-08-27T00:11:15.184Z,99739.38
2022-08-27T00:13:42.216Z,99741.22
2022-08-27T00:16:11.496Z,99741.75
2022-08-27T00:18:39.217Z,99744.84
2022-08-27T00:21:06.999Z,99741.13
2022-08-27T00:23:34.866Z,99742.16
2022-08-27T00:26:02.841Z,99748.66
2022-08-27T00:28:30.699Z,99749.94
2022-08-27T00:30:57.693Z,99745.31
2022-08-27T00:33:25.144Z,99753.28
2022-08-27T00:35:52.485Z,99748.25
2022-08-27T00:38:21.769Z,99753.38
2022-08-27T00:40:49.581Z,99756.53
2022-08-27T00:43:28.865Z,99761.47
2022-08-27T00:46:02.383Z,99763.81
2022-08-27T00:48:35.144Z,99772.47
2022-08-27T00:51:03.055Z,99769.38
2022-08-27T00:53:33.316Z,99769.25
2022-08-27T00:56:10.338Z,99765.75
2022-08-27T00:58:49.194Z,99769.50
2022-08-27T01:01:22.610Z,99764.09
2022-08-27T01:03:52.543Z,99761.63
2022-08-27T01:06:22.055Z,99763.34
2022-08-27T01:08:55.829Z,99772.88
2022-08-27T01:11:25.155Z,99768.72
2022-08-27T01:14:00.479Z,99776.41
2022-08-27T01:16:37.175Z,99777.91
2022-08-27T01:19:16.187Z,99772.59
2022-08-27T01:21:52.672Z,99779.81
2022-08-27T01:24:34.370Z,99772.59
2022-08-27T01:27:04.249Z,99772.25
2022-08-27T01:29:33.007Z,99782.81
2022-08-27T01:32:08.165Z,99776.94
2022-08-27T01:34:35.231Z,99774.06
2022-08-27T01:37:02.283Z,99776.75
2022-08-27T01:39:29.574Z,99772.38
2022-08-27T01:42:02.894Z,99772.75
2022-08-27T01:44:29.719Z,99773.75
2022-08-27T01:46:56.562Z,99775.50
2022-08-27T01:49:23.608Z,99779.03
2022-08-27T01:51:50.453Z,99789.59
2022-08-27T01:54:17.255Z,99778.53
2022-08-27T01:56:44.240Z,99775.84
2022-08-27T01:59:11.923Z,99777.47
2022-08-27T02:01:39.426Z,99785.72
2022-08-27T02:04:06.391Z,99786.25
2022-08-27T02:06:33.619Z,99783.53
2022-08-27T02:09:00.595Z,99777.34
2022-08-27T02:11:27.611Z,99783.41
2022-08-27T02:13:54.588Z,99783.72
2022-08-27T02:16:22.224Z,99778.03
2022-08-27T02:18:49.313Z,99787.94
2022-08-27T02:21:17.960Z,99778.72
2022-08-27T02:23:45.452Z,99782.09
2022-08-27T02:26:13.653Z,99776.72
2022-08-27T02:28:40.451Z,99767.38
2022-08-27T02:31:07.606Z,99766.53
2022-08-27T02:33:35.305Z,99762.66
2022-08-27T02:36:03.222Z,99778.06
2022-08-27T02:38:30.289Z,99766.16
2022-08-27T02:40:57.843Z,99764.03
2022-08-27T02:43:25.365Z,99767.50
2022-08-27T02:45:52.716Z,99760.16
2022-08-27T02:48:20.154Z,99762.66
2022-08-27T02:50:47.310Z,99759.47
2022-08-27T02:53:14.539Z,99766.19
2022-08-27T02:55:44.315Z,99768.03
2022-08-27T02:58:12.848Z,99771.03
2022-08-27T03:00:39.632Z,99771.22
2022-08-27T03:03:07.598Z,99765.69
2022-08-27T03:05:34.471Z,99765.00
2022-08-27T03:08:01.953Z,99768.22
2022-08-27T03:10:29.862Z,99769.22
2022-08-27T03:12:57.604Z,99768.38
2022-08-27T03:15:24.693Z,99765.72
2022-08-27T03:18:10.462Z,99776.22
2022-08-27T03:20:40.923Z,99773.06
2022-08-27T03:23:09.825Z,99766.88
2022-08-27T03:25:38.116Z,99770.88
2022-08-27T03:28:05.281Z,99768.03
2022-08-27T03:30:38.570Z,99773.91
2022-08-27T03:33:05.315Z,99774.91
2022-08-27T03:35:32.551Z,99772.56
2022-08-27T03:38:02.742Z,99766.03
2022-08-27T03:40:29.771Z,99767.72
2022-08-27T03:42:56.614Z,99767.72
2022-08-27T03:45:23.719Z,99774.22
2022-08-27T03:47:51.219Z,99770.06
2022-08-27T03:50:18.119Z,99764.03
2022-08-27T03:52:45.172Z,99758.69
2022-08-27T03:55:14.441Z,99765.69
2022-08-27T03:57:41.234Z,99757.50
2022-08-27T04:00:14.044Z,99766.88
2022-08-27T04:02:42.894Z,99770.91
2022-08-27T04:05:12.147Z,99775.41
2022-08-27T04:07:40.896Z,99775.91
2022-08-27T04:10:09.568Z,99771.91
2022-08-27T04:12:37.639Z,99772.56
2022-08-27T04:15:05.651Z,99777.75
2022-08-27T04:17:32.497Z,99777.09
2022-08-27T04:20:08.735Z,99782.44
2022-08-27T04:22:48.336Z,99776.91
2022-08-27T04:25:15.357Z,99786.59
2022-08-27T04:27:43.360Z,99780.25
2022-08-27T04:30:10.677Z,99782.59
2022-08-27T04:32:38.019Z,99790.28
2022-08-27T04:35:05.654Z,99782.97
2022-08-27T04:37:33.223Z,99788.78
2022-08-27T04:40:00.698Z,99777.22
2022-08-27T04:42:27.546Z,99776.59
2022-08-27T04:44:54.338Z,99781.75
2022-08-27T04:47:21.358Z,99781.09
2022-08-27T04:49:48.169Z,99782.59
2022-08-27T04:52:15.859Z,99769.56
2022-08-27T04:54:43.701Z,99773.25
2022-08-27T04:57:11.207Z,99772.41
2022-08-27T04:59:38.982Z,99773.06
2022-08-27T05:02:10.938Z,99780.25
2022-08-27T05:04:40.175Z,99778.91
2022-08-27T05:07:08.931Z,99779.28
2022-08-27T05:09:35.951Z,99780.75
2022-08-27T05:12:03.421Z,99786.28
2022-08-27T05:14:32.303Z,99791.16
2022-08-27T05:16:59.820Z,99790.94
2022-08-27T05:19:27.009Z,99789.59
2022-08-27T05:21:54.365Z,99791.94
2022-08-27T05:24:22.096Z,99791.09
2022-08-27T05:26:49.613Z,99788.91
2022-08-27T05:29:17.421Z,99793.03
2022-08-27T05:31:44.753Z,99791.47
2022-08-27T05:34:14.896Z,99791.28
2022-08-27T05:36:48.675Z,99795.09
2022-08-27T05:39:17.177Z,99793.59
2022-08-27T05:41:44.023Z,99785.81
2022-08-27T05:44:37.210Z,99788.81
2022-08-27T05:46:58.219Z,99786.06
2022-08-27T05:49:25.262Z,99782.31
2022-08-27T05:51:52.063Z,99786.06
2022-08-27T05:54:21.768Z,99784.00
2022-08-27T05:56:50.225Z,99780.03
2022-08-27T05:59:36.146Z,99778.88
2022-08-27T06:02:06.095Z,99782.69
2022-08-27T06:04:33.220Z,99785.22
2022-08-27T06:07:00.038Z,99788.28
2022-08-27T06:09:29.342Z,99789.19
2022-08-27T06:11:58.718Z,99782.88
2022-08-27T06:14:26.239Z,99789.66
2022-08-27T06:16:53.355Z,99787.56
2022-08-27T06:19:20.474Z,99794.69
2022-08-27T06:22:00.326Z,99792.44
2022-08-27T06:24:36.036Z,99802.41
2022-08-27T06:27:03.350Z,99787.66
2022-08-27T06:29:30.100Z,99795.34
2022-08-27T06:31:57.138Z,99798.94
2022-08-27T06:34:24.007Z,99791.03
2022-08-27T06:36:50.779Z,99799.94
2022-08-27T06:39:17.813Z,99812.34
2022-08-27T06:41:45.132Z,99810.25
2022-08-27T06:44:13.464Z,99808.63
2022-08-27T06:46:41.519Z,99813.13
2022-08-27T06:49:08.758Z,99816.09
2022-08-27T06:51:37.699Z,99814.78
2022-08-27T06:54:08.727Z,99817.34
2022-08-27T06:56:36.283Z,99814.28
2022-08-27T06:59:11.814Z,99811.06
2022-08-27T07:01:42.668Z,99813.50
2022-08-27T07:04:12.891Z,99810.97
2022-08-27T07:06:40.955Z,99811.09
2022-08-27T07:09:08.833Z,99811.63
2022-08-27T07:11:38.215Z,99819.41
2022-08-27T07:14:07.313Z,99820.06
2022-08-27T07:16:34.982Z,99826.03
2022-08-27T07:19:04.465Z,99824.19
2022-08-27T07:21:33.223Z,99826.94
2022-08-27T07:24:04.732Z,99825.09
2022-08-27T07:26:34.744Z,99826.63
2022-08-27T07:29:02.669Z,99834.22
2022-08-27T07:31:29.535Z,99826.31
2022-08-27T07:33:56.317Z,99828.59
2022-08-27T07:36:24.004Z,99827.97
2022-08-27T07:38:57.066Z,99832.78
2022-08-27T07:41:30.853Z,99834.03
2022-08-27T07:44:26.258Z,99831.94
2022-08-27T07:46:56.496Z,99837.31
2022-08-27T07:49:27.795Z,99834.22
2022-08-27T07:51:54.773Z,99829.09
2022-08-27T07:54:23.211Z,99834.28
2022-08-27T07:56:55.350Z,99831.13
2022-08-27T07:59:24.886Z,99830.91
2022-08-27T08:01:52.440Z,99831.50
2022-08-27T08:04:20.418Z,99823.16
2022-08-27T08:06:48.164Z,99818.25
2022-08-27T08:09:15.609Z,99831.53
2022-08-27T08:11:43.492Z,99829.31
2022-08-27T08:14:10.903Z,99829.44
2022-08-27T08:16:37.696Z,99828.66
2022-08-27T08:19:04.550Z,99826.50
2022-08-27T08:21:31.679Z,99826.81
2022-08-27T08:23:58.732Z,99837.34
2022-08-27T08:26:25.679Z,99829.63
2022-08-27T08:28:52.735Z,99832.28
2022-08-27T08:31:20.137Z,99836.59
2022-08-27T08:33:49.875Z,99835.03
2022-08-27T08:36:17.984Z,99834.47
2022-08-27T08:38:46.295Z,99831.72
2022-08-27T08:41:28.152Z,99824.94
2022-08-27T08:44:04.804Z,99829.16
2022-08-27T08:46:52.462Z,99835.19
2022-08-27T08:49:55.049Z,99825.88
2022-08-27T08:52:34.670Z,99836.31
2022-08-27T08:55:19.780Z,99835.19
2022-08-27T08:57:54.343Z,99827.00
2022-08-27T09:00:21.400Z,99828.44
2022-08-27T09:02:54.562Z,99822.88
2022-08-27T09:05:27.432Z,99826.47
2022-08-27T09:08:37.682Z,99826.56
2022-08-27T09:11:17.668Z,99820.31
2022-08-27T09:14:19.334Z,99817.78
2022-08-27T09:16:46.097Z,99815.63
2022-08-27T09:19:13.447Z,99813.91
2022-08-27T09:21:43.475Z,99811.66
2022-08-27T09:24:37.138Z,99811.56
2022-08-27T09:27:04.825Z,99804.16
2022-08-27T09:29:31.851Z,99808.03
2022-08-27T09:32:05.424Z,99801.22
2022-08-27T09:34:42.415Z,99809.88
2022-08-27T09:37:33.841Z,99799.84
2022-08-27T09:40:13.760Z,99797.53
2022-08-27T09:42:56.790Z,99799.97
2022-08-27T09:45:30.084Z,99792.25
2022-08-27T09:48:14.979Z,99799.09
2022-08-27T09:50:47.993Z,99791.78
2022-08-27T09:53:29.487Z,99800.16
2022-08-27T09:56:02.138Z,99790.84
2022-08-27T09:58:34.391Z,99789.00
2022-08-27T10:01:19.590Z,99786.75
2022-08-27T10:03:46.743Z,99794.97
2022-08-27T10:06:14.260Z,99791.53
2022-08-27T10:08:50.517Z,99787.91
2022-08-27T10:11:23.616Z,99799.63
2022-08-27T10:13:59.345Z,99787.19
2022-08-27T10:16:53.459Z,99791.69
2022-08-27T10:19:43.673Z,99794.41
2022-08-27T10:22:28.592Z,99787.91
2022-08-27T10:25:30.324Z,99786.00
2022-08-27T10:28:31.891Z,99785.34
2022-08-27T10:31:17.152Z,99794.16
2022-08-27T10:34:03.834Z,99793.25
2022-08-27T10:36:51.208Z,99790.88
2022-08-27T10:39:42.660Z,99786.88
2022-08-27T10:42:21.649Z,99787.63
2022-08-27T10:45:01.554Z,99790.75
2022-08-27T10:47:46.994Z,99790.31
2022-08-27T10:50:28.458Z,99786.88
2022-08-27T10:53:10.500Z,99782.63
2022-08-27T10:55:43.210Z,99779.91
2022-08-27T10:58:37.514Z,99780.44
2022-08-27T11:01:39.903Z,99784.06
2022-08-27T11:04:13.124Z,99772.19
2022-08-27T11:06:48.524Z,99770.91
2022-08-27T11:09:26.516Z,99776.91
2022-08-27T11:12:15.317Z,99768.41
2022-08-27T11:14:57.252Z,99772.25
2022-08-27T11:17:37.838Z,99771.97
2022-08-27T11:20:24.331Z,99767.25
2022-08-27T11:22:56.887Z,99763.94
2022-08-27T11:25:58.315Z,99765.03
2022-08-27T11:28:45.919Z,99763.03
2022-08-27T11:31:31.979Z,99757.44
2022-08-27T11:34:06.803Z,99763.72
2022-08-27T11:37:10.157Z,99758.50
2022-08-27T11:39:55.221Z,99754.41
2022-08-27T11:42:50.112Z,99757.53
2022-08-27T11:45:38.587Z,99753.53
2022-08-27T11:48:24.488Z,99748.91
2022-08-27T11:51:01.218Z,99753.09
2022-08-27T11:53:34.631Z,99748.41
2022-08-27T11:56:38.767Z,99739.63
2022-08-27T11:59:27.934Z,99735.31
2022-08-27T12:01:59.011Z,99731.75
2022-08-27T12:04:32.049Z,99733.69
2022-08-27T12:07:14.328Z,99725.63
2022-08-27T12:09:46.768Z,99724.03
2022-08-27T12:12:25.524Z,99722.88
2022-08-27T12:15:08.392Z,99726.13
2022-08-27T12:17:52.099Z,99719.25
2022-08-27T12:20:24.146Z,99718.94
2022-08-27T12:23:26.071Z,99710.41
2022-08-27T12:26:12.551Z,99713.25
2022-08-27T12:28:39.600Z,99707.03
2022-08-27T12:31:06.797Z,99710.41
2022-08-27T12:33:39.479Z,99711.47
2022-08-27T12:36:13.972Z,99701.31
2022-08-27T12:38:50.452Z,99701.91
2022-08-27T12:41:32.513Z,99699.03
2022-08-27T12:44:14.730Z,99697.25
2022-08-27T12:46:49.932Z,99697.13
2022-08-27T12:49:38.349Z,99687.03
2022-08-27T12:52:26.354Z,99687.50
2022-08-27T12:55:11.867Z,99686.53
2022-08-27T12:57:59.980Z,99686.28
2022-08-27T13:00:37.837Z,99673.91
2022-08-27T13:03:43.122Z,99677.78
2022-08-27T13:06:29.184Z,99679.00
2022-08-27T13:09:00.043Z,99678.66
2022-08-27T13:11:30.794Z,99675.66
2022-08-27T13:14:33.339Z,99671.53
2022-08-27T13:17:07.097Z,99681.34
2022-08-27T13:19:36.604Z,99676.63
2022-08-27T13:22:07.175Z,99677.97
2022-08-27T13:24:36.626Z,99679.50
2022-08-27T13:27:05.564Z,99679.59
2022-08-27T13:29:33.002Z,99676.38
2022-08-27T13:32:00.865Z,99671.66
2022-08-27T13:34:33.212Z,99671.59
2022-08-27T13:37:06.358Z,99678.06
2022-08-27T13:39:34.778Z,99677.22
2022-08-27T13:42:04.633Z,99676.94
2022-08-27T13:44:37.584Z,99675.06
2022-08-27T13:47:07.919Z,99671.25
2022-08-27T13:49:39.982Z,99672.50
2022-08-27T13:52:18.699Z,99674.63
2022-08-27T13:54:50.339Z,99670.97
2022-08-27T13:57:28.296Z,99669.25
2022-08-27T13:59:55.098Z,99673.91
2022-08-27T14:02:32.386Z,99672.34
2022-08-27T14:05:28.023Z,99674.75
2022-08-27T14:07:58.244Z,99667.88
2022-08-27T14:10:36.676Z,99661.59
2022-08-27T14:13:08.326Z,99666.44
2022-08-27T14:15:45.496Z,99659.97
2022-08-27T14:18:48.436Z,99657.38
2022-08-27T14:21:18.737Z,99667.00
2022-08-27T14:23:46.021Z,99660.91
2022-08-27T14:26:13.566Z,99660.88
2022-08-27T14:28:40.337Z,99664.72
2022-08-27T14:31:07.402Z,99658.31
2022-08-27T14:33:34.163Z,99659.09
2022-08-27T14:36:00.995Z,99654.50
2022-08-27T14:38:31.673Z,99662.00
2022-08-27T14:41:00.930Z,99656.03
2022-08-27T14:43:27.814Z,99651.91
2022-08-27T14:45:55.332Z,99653.53
2022-08-27T14:48:29.035Z,99659.31
2022-08-27T14:50:57.459Z,99657.50
2022-08-27T14:53:24.713Z,99664.09
2022-08-27T14:55:52.172Z,99658.94
2022-08-27T14:58:19.688Z,99662.13
2022-08-27T15:00:46.786Z,99673.69
2022-08-27T15:03:13.760Z,99664.97
2022-08-27T15:05:45.008Z,99664.09
2022-08-27T15:08:15.854Z,99666.19
2022-08-27T15:10:42.975Z,99670.34
2022-08-27T15:13:11.459Z,99667.25
2022-08-27T15:15:38.975Z,99667.69
2022-08-27T15:18:06.329Z,99668.34
2022-08-27T15:20:33.611Z,99670.47
2022-08-27T15:23:01.208Z,99669.34
2022-08-27T15:25:29.289Z,99677.34
2022-08-27T15:27:56.758Z,99674.16
2022-08-27T15:30:27.227Z,99669.63
2022-08-27T15:32:54.535Z,99677.69
2022-08-27T15:35:26.565Z,99671.88
2022-08-27T15:37:56.805Z,99680.91
2022-08-27T15:40:25.936Z,99672.72
2022-08-27T15:42:57.308Z,99672.91
2022-08-27T15:45:27.506Z,99677.81
2022-08-27T15:47:55.758Z,99681.94
2022-08-27T15:50:22.618Z,99683.72
2022-08-27T15:52:54.496Z,99681.09
2022-08-27T15:55:24.089Z,99677.28
2022-08-27T15:57:56.125Z,99677.47
2022-08-27T16:00:24.281Z,99681.19
2022-08-27T16:02:52.179Z,99679.72
2022-08-27T16:05:20.526Z,99681.94
2022-08-27T16:07:47.838Z,99679.38
2022-08-27T16:10:15.231Z,99680.53
2022-08-27T16:12:42.218Z,99682.66
2022-08-27T16:15:09.319Z,99681.72
2022-08-27T16:17:36.741Z,99682.81
2022-08-27T16:20:05.766Z,99682.81
2022-08-27T16:22:34.797Z,99682.13
2022-08-27T16:25:02.335Z,99677.66
2022-08-27T16:27:29.380Z,99687.81
2022-08-27T16:29:56.532Z,99692.81
2022-08-27T16:32:23.823Z,99689.19
2022-08-27T16:34:55.728Z,99690.31
2022-08-27T16:37:26.163Z,99694.47
2022-08-27T16:39:53.514Z,99692.97
2022-08-27T16:42:21.417Z,99689.94
2022-08-27T16:44:48.248Z,99693.78
2022-08-27T16:47:15.194Z,99703.19
2022-08-27T16:50:00.563Z,99695.41
2022-08-27T16:52:28.168Z,99695.94
2022-08-27T16:54:56.827Z,99708.06
2022-08-27T16:57:23.884Z,99702.75
2022-08-27T16:59:51.172Z,99697.81
2022-08-27T17:02:30.697Z,99696.88
2022-08-27T17:05:12.160Z,99700.78
2022-08-27T17:07:50.152Z,99704.28
2022-08-27T17:10:18.815Z,99713.75
2022-08-27T17:12:47.134Z,99713.97
2022-08-27T17:15:18.212Z,99712.50
2022-08-27T17:17:45.997Z,99719.47
2022-08-27T17:20:15.179Z,99720.03
2022-08-27T17:22:42.755Z,99727.38
2022-08-27T17:25:10.398Z,99726.31
2022-08-27T17:27:37.176Z,99739.66
2022-08-27T17:30:05.222Z,99741.13
2022-08-27T17:32:37.351Z,99746.75
2022-08-27T17:35:06.933Z,99749.13
2022-08-27T17:37:34.569Z,99754.56
2022-08-27T17:40:01.528Z,99763.41
2022-08-27T17:42:29.552Z,99764.63
2022-08-27T17:44:57.084Z,99763.66
2022-08-27T17:47:24.980Z,99765.53
2022-08-27T17:49:53.749Z,99775.94
2022-08-27T17:52:20.895Z,99773.22
2022-08-27T17:54:51.178Z,99772.56
2022-08-27T17:57:22.641Z,99777.72
2022-08-27T17:59:50.283Z,99774.16
2022-08-27T18:02:37.178Z,99775.28
2022-08-27T18:05:05.702Z,99778.31
2022-08-27T18:07:35.632Z,99781.28
2022-08-27T18:10:05.241Z,99783.91
2022-08-27T18:12:32.385Z,99789.47
2022-08-27T18:15:08.344Z,99783.19
2022-08-27T18:17:36.007Z,99791.91
2022-08-27T18:20:07.892Z,99787.81
2022-08-27T18:22:38.826Z,99789.38
2022-08-27T18:25:19.871Z,99790.47
2022-08-27T18:27:53.020Z,99796.47
2022-08-27T18:30:34.762Z,99801.22
2022-08-27T18:33:04.628Z,99799.75
2022-08-27T18:35:33.539Z,99805.41
2022-08-27T18:38:00.748Z,99804.63
2022-08-27T18:40:31.886Z,99803.78
2022-08-27T18:42:59.007Z,99802.81
2022-08-27T18:45:28.634Z,99806.97
2022-08-27T18:47:57.655Z,99809.28
2022-08-27T18:50:25.507Z,99807.78
2022-08-27T18:52:54.243Z,99809.31
2022-08-27T18:55:25.715Z,99808.03
2022-08-27T18:57:52.960Z,99809.72
2022-08-27T19:00:20.666Z,99809.09
2022-08-27T19:02:52.722Z,99811.19
2022-08-27T19:05:26.590Z,99809.53
2022-08-27T19:07:54.567Z,99815.78
2022-08-27T19:10:21.883Z,99815.56
2022-08-27T19:12:48.905Z,99813.66
2022-08-27T19:15:16.733Z,99812.44
2022-08-27T19:17:46.995Z,99809.31
2022-08-27T19:20:15.883Z,99810.34
2022-08-27T19:22:42.772Z,99804.50
2022-08-27T19:25:13.130Z,99798.91
2022-08-27T19:27:40.441Z,99798.47
2022-08-27T19:30:08.168Z,99796.41
2022-08-27T19:32:35.263Z,99793.91
2022-08-27T19:35:02.007Z,99791.19
2022-08-27T19:37:30.749Z,99792.44
2022-08-27T19:40:01.056Z,99789.50
2022-08-27T19:42:29.368Z,99789.28
2022-08-27T19:44:56.755Z,99785.34
2022-08-27T19:47:25.966Z,99788.66
2022-08-27T19:49:54.136Z,99791.97
2022-08-27T19:52:21.232Z,99793.66
2022-08-27T19:55:10.100Z,99792.81
2022-08-27T19:57:35.474Z,99794.41
2022-08-27T20:00:03.755Z,99804.16
2022-08-27T20:02:30.584Z,99804.59
2022-08-27T20:05:16.904Z,99808.75
